sensor_id;sensor_type;location;lat;lon;timestamp;temperature;humidity
11965;DHT22;6042;41.326;19.826;2023-06-14T00:00:56;20.40;99.90
11965;DHT22;6042;41.326;19.826;2023-06-14T00:03:25;20.40;99.90
11965;DHT22;6042;41.326;19.826;2023-06-14T00:05:54;20.20;99.90
11965;DHT22;6042;41.326;19.826;2023-06-14T00:08:24;20.30;99.90
11965;DHT22;6042;41.326;19.826;2023-06-14T00:10:53;20.40;99.90
11965;DHT22;6042;41.326;19.826;2023-06-14T00:13:22;20.30;99.90
11965;DHT22;6042;41.326;19.826;2023-06-14T00:15:50;20.30;99.90
11965;DHT22;6042;41.326;19.826;2023-06-14T00:18:22;20.40;99.90
11965;DHT22;6042;41.326;19.826;2023-06-14T00:20:52;20.40;99.90
11965;DHT22;6042;41.326;19.826;2023-06-14T00:23:21;20.40;99.90
11965;DHT22;6042;41.326;19.826;2023-06-14T00:25:50;20.50;99.90
11965;DHT22;6042;41.326;19.826;2023-06-14T00:28:19;20.50;99.90
11965;DHT22;6042;41.326;19.826;2023-06-14T00:30:48;20.40;99.90
11965;DHT22;6042;41.326;19.826;2023-06-14T00:33:16;20.30;99.90
11965;DHT22;6042;41.326;19.826;2023-06-14T00:35:47;20.00;99.90
11965;DHT22;6042;41.326;19.826;2023-06-14T00:38:19;20.00;99.90
11965;DHT22;6042;41.326;19.826;2023-06-14T00:40:49;20.00;99.90
11965;DHT22;6042;41.326;19.826;2023-06-14T00:43:18;20.10;99.90
11965;DHT22;6042;41.326;19.826;2023-06-14T00:45:47;20.20;99.90
11965;DHT22;6042;41.326;19.826;2023-06-14T00:48:17;20.20;99.90
11965;DHT22;6042;41.326;19.826;2023-06-14T00:50:46;20.30;99.90
11965;DHT22;6042;41.326;19.826;2023-06-14T00:53:16;20.30;99.90
11965;DHT22;6042;41.326;19.826;2023-06-14T00:55:45;20.40;99.90
11965;DHT22;6042;41.326;19.826;2023-06-14T00:58:17;20.40;99.90
11965;DHT22;6042;41.326;19.826;2023-06-14T01:00:46;20.40;99.90
11965;DHT22;6042;41.326;19.826;2023-06-14T01:03:15;20.30;99.90
11965;DHT22;6042;41.326;19.826;2023-06-14T01:05:51;20.30;99.90
11965;DHT22;6042;41.326;19.826;2023-06-14T01:08:26;20.30;99.90
11965;DHT22;6042;41.326;19.826;2023-06-14T01:11:01;20.20;99.90
11965;DHT22;6042;41.326;19.826;2023-06-14T01:13:36;20.20;99.90
11965;DHT22;6042;41.326;19.826;2023-06-14T01:16:07;20.20;99.90
11965;DHT22;6042;41.326;19.826;2023-06-14T01:18:36;20.10;99.90
11965;DHT22;6042;41.326;19.826;2023-06-14T01:21:05;20.00;99.90
11965;DHT22;6042;41.326;19.826;2023-06-14T01:23:35;20.00;99.90
11965;DHT22;6042;41.326;19.826;2023-06-14T01:26:03;19.90;99.90
11965;DHT22;6042;41.326;19.826;2023-06-14T01:28:33;19.90;99.90
11965;DHT22;6042;41.326;19.826;2023-06-14T01:31:03;19.90;99.90
11965;DHT22;6042;41.326;19.826;2023-06-14T01:33:33;19.90;99.90
11965;DHT22;6042;41.326;19.826;2023-06-14T01:36:05;20.00;99.90
11965;DHT22;6042;41.326;19.826;2023-06-14T01:38:38;20.00;99.90
11965;DHT22;6042;41.326;19.826;2023-06-14T01:41:08;20.10;99.90
11965;DHT22;6042;41.326;19.826;2023-06-14T01:43:39;20.20;99.90
11965;DHT22;6042;41.326;19.826;2023-06-14T01:46:09;20.20;99.90
11965;DHT22;6042;41.326;19.826;2023-06-14T01:48:38;20.10;99.90
11965;DHT22;6042;41.326;19.826;2023-06-14T01:51:07;20.10;99.90
11965;DHT22;6042;41.326;19.826;2023-06-14T01:53:35;20.10;99.90
11965;DHT22;6042;41.326;19.826;2023-06-14T01:56:06;20.00;99.90
11965;DHT22;6042;41.326;19.826;2023-06-14T01:58:36;19.90;99.90
11965;DHT22;6042;41.326;19.826;2023-06-14T02:01:07;19.90;99.90
11965;DHT22;6042;41.326;19.826;2023-06-14T02:03:36;19.90;99.90
11965;DHT22;6042;41.326;19.826;2023-06-14T02:06:06;19.80;99.90
11965;DHT22;6042;41.326;19.826;2023-06-14T02:08:34;19.90;99.90
11965;DHT22;6042;41.326;19.826;2023-06-14T02:11:05;19.90;99.90
11965;DHT22;6042;41.326;19.826;2023-06-14T02:13:35;19.90;99.90
11965;DHT22;6042;41.326;19.826;2023-06-14T02:16:03;19.90;99.90
11965;DHT22;6042;41.326;19.826;2023-06-14T02:18:32;19.90;99.90
11965;DHT22;6042;41.326;19.826;2023-06-14T02:21:02;19.90;99.90
11965;DHT22;6042;41.326;19.826;2023-06-14T02:23:31;20.00;99.90
11965;DHT22;6042;41.326;19.826;2023-06-14T02:26:02;19.90;99.90
11965;DHT22;6042;41.326;19.826;2023-06-14T02:28:35;20.00;99.90
11965;DHT22;6042;41.326;19.826;2023-06-14T02:31:04;19.90;99.90
11965;DHT22;6042;41.326;19.826;2023-06-14T02:33:32;19.90;99.90
11965;DHT22;6042;41.326;19.826;2023-06-14T02:36:02;19.90;99.90
11965;DHT22;6042;41.326;19.826;2023-06-14T02:38:33;20.00;99.90
11965;DHT22;6042;41.326;19.826;2023-06-14T02:41:03;19.90;99.90
11965;DHT22;6042;41.326;19.826;2023-06-14T02:43:33;19.90;99.90
11965;DHT22;6042;41.326;19.826;2023-06-14T02:46:03;19.80;99.90
11965;DHT22;6042;41.326;19.826;2023-06-14T02:48:32;19.80;99.90
11965;DHT22;6042;41.326;19.826;2023-06-14T02:51:01;19.80;99.90
11965;DHT22;6042;41.326;19.826;2023-06-14T02:53:29;19.80;99.90
11965;DHT22;6042;41.326;19.826;2023-06-14T02:55:58;19.70;99.90
11965;DHT22;6042;41.326;19.826;2023-06-14T02:58:27;19.70;99.90
11965;DHT22;6042;41.326;19.826;2023-06-14T03:00:57;19.60;99.90
11965;DHT22;6042;41.326;19.826;2023-06-14T03:03:32;19.50;99.90
11965;DHT22;6042;41.326;19.826;2023-06-14T03:06:01;19.50;99.90
11965;DHT22;6042;41.326;19.826;2023-06-14T03:08:35;19.50;99.90
11965;DHT22;6042;41.326;19.826;2023-06-14T03:11:12;19.50;99.90
11965;DHT22;6042;41.326;19.826;2023-06-14T03:13:42;19.60;99.90
11965;DHT22;6042;41.326;19.826;2023-06-14T03:16:11;19.50;99.90
11965;DHT22;6042;41.326;19.826;2023-06-14T03:18:42;19.60;99.90
11965;DHT22;6042;41.326;19.826;2023-06-14T03:21:11;19.60;99.90
11965;DHT22;6042;41.326;19.826;2023-06-14T03:23:43;19.60;99.90
11965;DHT22;6042;41.326;19.826;2023-06-14T03:26:13;19.70;99.90
11965;DHT22;6042;41.326;19.826;2023-06-14T03:28:47;19.80;99.90
11965;DHT22;6042;41.326;19.826;2023-06-14T03:31:17;19.80;99.90
11965;DHT22;6042;41.326;19.826;2023-06-14T03:33:48;19.80;99.90
11965;DHT22;6042;41.326;19.826;2023-06-14T03:36:18;19.70;99.90
11965;DHT22;6042;41.326;19.826;2023-06-14T03:38:46;19.70;99.90
11965;DHT22;6042;41.326;19.826;2023-06-14T03:41:16;19.80;99.90
11965;DHT22;6042;41.326;19.826;2023-06-14T03:43:45;19.80;99.90
11965;DHT22;6042;41.326;19.826;2023-06-14T03:46:15;19.90;99.90
11965;DHT22;6042;41.326;19.826;2023-06-14T03:48:45;19.90;99.90
11965;DHT22;6042;41.326;19.826;2023-06-14T03:51:15;19.90;99.90
11965;DHT22;6042;41.326;19.826;2023-06-14T03:53:45;19.90;99.90
11965;DHT22;6042;41.326;19.826;2023-06-14T03:56:21;20.00;99.90
11965;DHT22;6042;41.326;19.826;2023-06-14T03:58:50;20.00;99.90
11965;DHT22;6042;41.326;19.826;2023-06-14T04:01:23;20.00;99.90
11965;DHT22;6042;41.326;19.826;2023-06-14T04:03:54;20.00;99.90
11965;DHT22;6042;41.326;19.826;2023-06-14T04:06:26;19.90;99.90
11965;DHT22;6042;41.326;19.826;2023-06-14T04:09:02;20.00;99.90
11965;DHT22;6042;41.326;19.826;2023-06-14T04:11:31;20.20;99.90
11965;DHT22;6042;41.326;19.826;2023-06-14T04:13:59;20.20;99.90
11965;DHT22;6042;41.326;19.826;2023-06-14T04:16:29;20.30;99.90
11965;DHT22;6042;41.326;19.826;2023-06-14T04:19:00;20.10;99.90
11965;DHT22;6042;41.326;19.826;2023-06-14T04:21:30;20.20;99.90
11965;DHT22;6042;41.326;19.826;2023-06-14T04:24:04;20.20;99.90
11965;DHT22;6042;41.326;19.826;2023-06-14T04:26:34;20.30;99.90
11965;DHT22;6042;41.326;19.826;2023-06-14T04:29:03;20.30;99.90
11965;DHT22;6042;41.326;19.826;2023-06-14T04:31:41;20.30;99.90
11965;DHT22;6042;41.326;19.826;2023-06-14T04:34:11;20.40;99.90
11965;DHT22;6042;41.326;19.826;2023-06-14T04:36:52;20.60;99.90
11965;DHT22;6042;41.326;19.826;2023-06-14T04:39:29;20.70;99.90
11965;DHT22;6042;41.326;19.826;2023-06-14T04:42:00;20.70;99.90
11965;DHT22;6042;41.326;19.826;2023-06-14T04:44:33;20.80;99.90
11965;DHT22;6042;41.326;19.826;2023-06-14T04:47:03;20.90;99.90
11965;DHT22;6042;41.326;19.826;2023-06-14T04:49:32;21.00;99.90
11965;DHT22;6042;41.326;19.826;2023-06-14T04:52:02;21.00;99.90
11965;DHT22;6042;41.326;19.826;2023-06-14T04:54:35;21.00;99.90
11965;DHT22;6042;41.326;19.826;2023-06-14T04:57:07;21.00;99.90
11965;DHT22;6042;41.326;19.826;2023-06-14T04:59:42;21.10;99.90
11965;DHT22;6042;41.326;19.826;2023-06-14T05:02:12;21.10;99.90
11965;DHT22;6042;41.326;19.826;2023-06-14T05:04:41;21.00;99.90
11965;DHT22;6042;41.326;19.826;2023-06-14T05:07:12;21.00;99.90
11965;DHT22;6042;41.326;19.826;2023-06-14T05:09:42;20.90;99.90
11965;DHT22;6042;41.326;19.826;2023-06-14T05:12:12;20.80;99.90
11965;DHT22;6042;41.326;19.826;2023-06-14T05:14:41;20.80;99.90
11965;DHT22;6042;41.326;19.826;2023-06-14T05:17:10;20.80;99.90
11965;DHT22;6042;41.326;19.826;2023-06-14T05:19:38;20.80;99.90
11965;DHT22;6042;41.326;19.826;2023-06-14T05:22:07;20.90;99.90
11965;DHT22;6042;41.326;19.826;2023-06-14T05:24:37;21.20;99.90
11965;DHT22;6042;41.326;19.826;2023-06-14T05:27:05;21.50;99.90
11965;DHT22;6042;41.326;19.826;2023-06-14T05:29:34;21.70;99.90
11965;DHT22;6042;41.326;19.826;2023-06-14T05:32:03;22.00;99.90
11965;DHT22;6042;41.326;19.826;2023-06-14T05:34:32;22.20;99.90
11965;DHT22;6042;41.326;19.826;2023-06-14T05:37:04;22.20;99.90
11965;DHT22;6042;41.326;19.826;2023-06-14T05:39:32;22.30;99.90
11965;DHT22;6042;41.326;19.826;2023-06-14T05:42:03;22.40;99.90
11965;DHT22;6042;41.326;19.826;2023-06-14T05:44:33;22.50;99.90
11965;DHT22;6042;41.326;19.826;2023-06-14T05:47:01;22.50;99.90
11965;DHT22;6042;41.326;19.826;2023-06-14T05:49:30;22.30;99.90
11965;DHT22;6042;41.326;19.826;2023-06-14T05:51:59;22.50;99.90
11965;DHT22;6042;41.326;19.826;2023-06-14T05:54:27;22.70;99.90
11965;DHT22;6042;41.326;19.826;2023-06-14T05:56:56;22.80;99.90
11965;DHT22;6042;41.326;19.826;2023-06-14T05:59:30;22.80;99.90
11965;DHT22;6042;41.326;19.826;2023-06-14T06:01:58;22.80;99.90
11965;DHT22;6042;41.326;19.826;2023-06-14T06:04:30;22.90;99.90
11965;DHT22;6042;41.326;19.826;2023-06-14T06:06:59;23.00;99.90
11965;DHT22;6042;41.326;19.826;2023-06-14T06:09:27;23.00;99.90
11965;DHT22;6042;41.326;19.826;2023-06-14T06:11:59;23.00;99.90
11965;DHT22;6042;41.326;19.826;2023-06-14T06:14:29;23.10;99.90
11965;DHT22;6042;41.326;19.826;2023-06-14T06:16:57;23.30;99.90
11965;DHT22;6042;41.326;19.826;2023-06-14T06:19:26;23.30;99.90
11965;DHT22;6042;41.326;19.826;2023-06-14T06:21:54;23.40;99.90
11965;DHT22;6042;41.326;19.826;2023-06-14T06:24:23;23.50;99.90
11965;DHT22;6042;41.326;19.826;2023-06-14T06:26:52;23.50;99.90
11965;DHT22;6042;41.326;19.826;2023-06-14T06:29:21;23.50;99.90
11965;DHT22;6042;41.326;19.826;2023-06-14T06:31:51;23.80;99.90
11965;DHT22;6042;41.326;19.826;2023-06-14T06:34:20;23.50;99.90
11965;DHT22;6042;41.326;19.826;2023-06-14T06:36:48;23.50;99.90
11965;DHT22;6042;41.326;19.826;2023-06-14T06:39:18;23.70;99.90
11965;DHT22;6042;41.326;19.826;2023-06-14T06:41:47;23.90;99.90
11965;DHT22;6042;41.326;19.826;2023-06-14T06:44:26;24.10;99.90
11965;DHT22;6042;41.326;19.826;2023-06-14T06:46:57;24.00;99.90
11965;DHT22;6042;41.326;19.826;2023-06-14T06:49:26;23.80;99.90
11965;DHT22;6042;41.326;19.826;2023-06-14T06:52:01;23.70;99.90
11965;DHT22;6042;41.326;19.826;2023-06-14T06:54:31;23.70;99.90
11965;DHT22;6042;41.326;19.826;2023-06-14T06:57:00;23.60;99.90
11965;DHT22;6042;41.326;19.826;2023-06-14T06:59:29;23.60;99.90
11965;DHT22;6042;41.326;19.826;2023-06-14T07:01:59;23.60;99.90
11965;DHT22;6042;41.326;19.826;2023-06-14T07:04:28;23.80;99.90
11965;DHT22;6042;41.326;19.826;2023-06-14T07:06:56;23.90;99.90
11965;DHT22;6042;41.326;19.826;2023-06-14T07:09:25;24.10;99.90
11965;DHT22;6042;41.326;19.826;2023-06-14T07:11:53;24.20;99.90
11965;DHT22;6042;41.326;19.826;2023-06-14T07:14:22;24.40;99.90
11965;DHT22;6042;41.326;19.826;2023-06-14T07:16:51;24.30;99.90
11965;DHT22;6042;41.326;19.826;2023-06-14T07:19:22;24.50;99.90
11965;DHT22;6042;41.326;19.826;2023-06-14T07:21:50;24.50;99.90
11965;DHT22;6042;41.326;19.826;2023-06-14T07:24:20;24.60;99.90
11965;DHT22;6042;41.326;19.826;2023-06-14T07:26:49;24.50;99.90
11965;DHT22;6042;41.326;19.826;2023-06-14T07:29:18;24.40;99.90
11965;DHT22;6042;41.326;19.826;2023-06-14T07:31:47;24.60;99.90
11965;DHT22;6042;41.326;19.826;2023-06-14T07:34:16;24.60;99.90
11965;DHT22;6042;41.326;19.826;2023-06-14T07:36:46;24.70;99.90
11965;DHT22;6042;41.326;19.826;2023-06-14T07:39:14;24.70;99.90
11965;DHT22;6042;41.326;19.826;2023-06-14T07:41:43;24.90;99.90
11965;DHT22;6042;41.326;19.826;2023-06-14T07:44:12;25.10;99.90
11965;DHT22;6042;41.326;19.826;2023-06-14T07:46:40;25.00;99.90
11965;DHT22;6042;41.326;19.826;2023-06-14T07:49:09;25.10;99.90
11965;DHT22;6042;41.326;19.826;2023-06-14T07:51:37;25.20;99.90
11965;DHT22;6042;41.326;19.826;2023-06-14T07:54:07;25.10;99.90
11965;DHT22;6042;41.326;19.826;2023-06-14T07:56:36;25.10;99.90
11965;DHT22;6042;41.326;19.826;2023-06-14T07:59:05;25.10;99.90
11965;DHT22;6042;41.326;19.826;2023-06-14T08:01:34;25.20;99.90
11965;DHT22;6042;41.326;19.826;2023-06-14T08:04:03;25.50;99.90
11965;DHT22;6042;41.326;19.826;2023-06-14T08:06:33;25.40;99.90
11965;DHT22;6042;41.326;19.826;2023-06-14T08:09:02;25.60;99.90
11965;DHT22;6042;41.326;19.826;2023-06-14T08:11:32;25.40;99.90
11965;DHT22;6042;41.326;19.826;2023-06-14T08:14:03;25.30;99.90
11965;DHT22;6042;41.326;19.826;2023-06-14T08:16:31;25.30;99.90
11965;DHT22;6042;41.326;19.826;2023-06-14T08:19:00;25.40;99.90
11965;DHT22;6042;41.326;19.826;2023-06-14T08:21:29;25.50;99.90
11965;DHT22;6042;41.326;19.826;2023-06-14T08:24:00;25.60;99.90
11965;DHT22;6042;41.326;19.826;2023-06-14T08:26:30;25.90;99.90
11965;DHT22;6042;41.326;19.826;2023-06-14T08:28:59;26.00;99.90
11965;DHT22;6042;41.326;19.826;2023-06-14T08:31:28;26.10;99.90
11965;DHT22;6042;41.326;19.826;2023-06-14T08:33:59;26.50;99.90
11965;DHT22;6042;41.326;19.826;2023-06-14T08:36:30;26.70;99.90
11965;DHT22;6042;41.326;19.826;2023-06-14T08:38:59;26.80;99.90
11965;DHT22;6042;41.326;19.826;2023-06-14T08:49:11;26.90;99.90
11965;DHT22;6042;41.326;19.826;2023-06-14T08:51:42;27.40;99.90
11965;DHT22;6042;41.326;19.826;2023-06-14T08:54:12;27.30;99.90
11965;DHT22;6042;41.326;19.826;2023-06-14T08:56:41;27.40;99.90
11965;DHT22;6042;41.326;19.826;2023-06-14T08:59:11;27.20;99.90
11965;DHT22;6042;41.326;19.826;2023-06-14T09:01:40;27.20;99.90
11965;DHT22;6042;41.326;19.826;2023-06-14T09:04:27;27.30;99.90
11965;DHT22;6042;41.326;19.826;2023-06-14T09:06:56;27.40;99.90
11965;DHT22;6042;41.326;19.826;2023-06-14T09:09:25;27.10;99.90
11965;DHT22;6042;41.326;19.826;2023-06-14T09:11:54;27.20;99.90
11965;DHT22;6042;41.326;19.826;2023-06-14T09:14:24;27.30;99.90
11965;DHT22;6042;41.326;19.826;2023-06-14T09:16:53;27.30;99.90
11965;DHT22;6042;41.326;19.826;2023-06-14T09:19:22;27.30;99.90
11965;DHT22;6042;41.326;19.826;2023-06-14T09:21:53;27.50;99.90
11965;DHT22;6042;41.326;19.826;2023-06-14T09:24:24;27.50;99.90
11965;DHT22;6042;41.326;19.826;2023-06-14T09:26:54;27.50;99.90
11965;DHT22;6042;41.326;19.826;2023-06-14T09:29:22;27.60;99.90
11965;DHT22;6042;41.326;19.826;2023-06-14T09:31:51;27.70;99.90
11965;DHT22;6042;41.326;19.826;2023-06-14T09:34:20;27.90;99.90
11965;DHT22;6042;41.326;19.826;2023-06-14T09:36:55;27.90;99.40
11965;DHT22;6042;41.326;19.826;2023-06-14T09:39:24;28.00;99.20
11965;DHT22;6042;41.326;19.826;2023-06-14T09:41:54;28.00;98.50
11965;DHT22;6042;41.326;19.826;2023-06-14T09:44:23;27.70;99.40
11965;DHT22;6042;41.326;19.826;2023-06-14T09:46:56;27.90;99.20
11965;DHT22;6042;41.326;19.826;2023-06-14T09:49:24;27.90;98.70
11965;DHT22;6042;41.326;19.826;2023-06-14T09:51:59;27.90;98.90
11965;DHT22;6042;41.326;19.826;2023-06-14T09:54:28;27.80;99.60
11965;DHT22;6042;41.326;19.826;2023-06-14T09:56:58;27.80;99.60
11965;DHT22;6042;41.326;19.826;2023-06-14T09:59:31;27.90;99.80
11965;DHT22;6042;41.326;19.826;2023-06-14T10:02:07;28.10;99.10
11965;DHT22;6042;41.326;19.826;2023-06-14T10:04:40;27.90;98.20
11965;DHT22;6042;41.326;19.826;2023-06-14T10:07:13;27.80;98.00
11965;DHT22;6042;41.326;19.826;2023-06-14T10:17:10;28.20;98.90
11965;DHT22;6042;41.326;19.826;2023-06-14T10:19:44;28.30;98.70
11965;DHT22;6042;41.326;19.826;2023-06-14T10:22:23;28.50;97.80
11965;DHT22;6042;41.326;19.826;2023-06-14T10:24:52;28.50;98.10
11965;DHT22;6042;41.326;19.826;2023-06-14T10:27:21;28.60;97.90
11965;DHT22;6042;41.326;19.826;2023-06-14T10:30:06;28.60;97.40
11965;DHT22;6042;41.326;19.826;2023-06-14T10:33:05;28.70;97.40
11965;DHT22;6042;41.326;19.826;2023-06-14T10:35:36;28.80;97.40
11965;DHT22;6042;41.326;19.826;2023-06-14T10:38:07;28.90;96.70
11965;DHT22;6042;41.326;19.826;2023-06-14T10:40:36;28.80;96.60
11965;DHT22;6042;41.326;19.826;2023-06-14T10:43:22;28.80;96.80
11965;DHT22;6042;41.326;19.826;2023-06-14T10:46:17;28.60;97.10
11965;DHT22;6042;41.326;19.826;2023-06-14T10:48:57;28.70;97.10
11965;DHT22;6042;41.326;19.826;2023-06-14T10:51:30;28.60;97.10
11965;DHT22;6042;41.326;19.826;2023-06-14T10:54:13;28.50;97.70
11965;DHT22;6042;41.326;19.826;2023-06-14T10:56:46;28.80;97.40
11965;DHT22;6042;41.326;19.826;2023-06-14T10:59:16;29.20;97.00
11965;DHT22;6042;41.326;19.826;2023-06-14T11:01:52;29.30;96.20
11965;DHT22;6042;41.326;19.826;2023-06-14T11:04:34;29.10;96.70
11965;DHT22;6042;41.326;19.826;2023-06-14T11:07:26;29.10;96.90
11965;DHT22;6042;41.326;19.826;2023-06-14T11:10:09;28.90;96.90
11965;DHT22;6042;41.326;19.826;2023-06-14T11:12:39;28.70;97.20
11965;DHT22;6042;41.326;19.826;2023-06-14T11:15:09;28.90;96.50
11965;DHT22;6042;41.326;19.826;2023-06-14T11:17:38;28.90;95.50
11965;DHT22;6042;41.326;19.826;2023-06-14T11:20:13;28.90;95.90
11965;DHT22;6042;41.326;19.826;2023-06-14T11:22:48;28.90;95.80
11965;DHT22;6042;41.326;19.826;2023-06-14T11:25:20;29.00;95.80
11965;DHT22;6042;41.326;19.826;2023-06-14T11:27:49;29.10;95.80
11965;DHT22;6042;41.326;19.826;2023-06-14T11:30:18;29.50;95.90
11965;DHT22;6042;41.326;19.826;2023-06-14T11:32:47;29.70;96.10
11965;DHT22;6042;41.326;19.826;2023-06-14T11:35:19;29.80;95.10
11965;DHT22;6042;41.326;19.826;2023-06-14T11:37:53;30.10;94.60
11965;DHT22;6042;41.326;19.826;2023-06-14T11:40:24;30.40;93.60
11965;DHT22;6042;41.326;19.826;2023-06-14T11:42:58;30.50;93.30
11965;DHT22;6042;41.326;19.826;2023-06-14T11:45:29;29.90;94.40
11965;DHT22;6042;41.326;19.826;2023-06-14T11:47:58;29.80;95.10
11965;DHT22;6042;41.326;19.826;2023-06-14T11:50:29;30.10;95.40
11965;DHT22;6042;41.326;19.826;2023-06-14T11:52:58;30.50;94.40
11965;DHT22;6042;41.326;19.826;2023-06-14T11:55:36;30.60;93.70
11965;DHT22;6042;41.326;19.826;2023-06-14T11:58:06;30.30;94.30
11965;DHT22;6042;41.326;19.826;2023-06-14T12:00:36;30.10;94.20
11965;DHT22;6042;41.326;19.826;2023-06-14T12:03:04;30.30;94.10
11965;DHT22;6042;41.326;19.826;2023-06-14T12:05:36;30.40;94.90
11965;DHT22;6042;41.326;19.826;2023-06-14T12:08:05;30.80;93.70
11965;DHT22;6042;41.326;19.826;2023-06-14T12:10:41;30.90;93.30
11965;DHT22;6042;41.326;19.826;2023-06-14T12:13:11;31.10;93.20
11965;DHT22;6042;41.326;19.826;2023-06-14T12:15:40;31.00;93.30
11965;DHT22;6042;41.326;19.826;2023-06-14T12:18:10;30.90;94.60
11965;DHT22;6042;41.326;19.826;2023-06-14T12:20:40;30.30;96.40
11965;DHT22;6042;41.326;19.826;2023-06-14T12:23:08;30.20;97.20
11965;DHT22;6042;41.326;19.826;2023-06-14T12:25:38;29.70;98.00
11965;DHT22;6042;41.326;19.826;2023-06-14T12:28:08;29.60;98.80
11965;DHT22;6042;41.326;19.826;2023-06-14T12:30:37;29.40;99.40
11965;DHT22;6042;41.326;19.826;2023-06-14T12:33:06;29.30;99.50
11965;DHT22;6042;41.326;19.826;2023-06-14T12:35:35;29.10;99.60
11965;DHT22;6042;41.326;19.826;2023-06-14T12:38:05;29.00;99.50
11965;DHT22;6042;41.326;19.826;2023-06-14T12:40:34;29.40;99.60
11965;DHT22;6042;41.326;19.826;2023-06-14T12:43:05;30.10;97.90
11965;DHT22;6042;41.326;19.826;2023-06-14T12:45:33;29.90;97.50
11965;DHT22;6042;41.326;19.826;2023-06-14T12:48:02;30.10;97.50
11965;DHT22;6042;41.326;19.826;2023-06-14T12:50:31;29.80;97.70
11965;DHT22;6042;41.326;19.826;2023-06-14T12:53:00;29.50;98.10
11965;DHT22;6042;41.326;19.826;2023-06-14T12:55:30;29.90;97.90
11965;DHT22;6042;41.326;19.826;2023-06-14T12:57:59;30.30;97.20
11965;DHT22;6042;41.326;19.826;2023-06-14T13:00:27;30.10;97.60
11965;DHT22;6042;41.326;19.826;2023-06-14T13:02:57;30.10;97.80
11965;DHT22;6042;41.326;19.826;2023-06-14T13:05:26;30.50;97.30
11965;DHT22;6042;41.326;19.826;2023-06-14T13:07:55;31.00;96.80
11965;DHT22;6042;41.326;19.826;2023-06-14T13:10:24;32.20;95.40
11965;DHT22;6042;41.326;19.826;2023-06-14T13:12:54;33.00;94.30
11965;DHT22;6042;41.326;19.826;2023-06-14T13:15:25;32.80;94.10
11965;DHT22;6042;41.326;19.826;2023-06-14T13:17:54;32.40;94.60
11965;DHT22;6042;41.326;19.826;2023-06-14T13:20:22;31.90;94.80
11965;DHT22;6042;41.326;19.826;2023-06-14T13:22:51;32.10;94.50
11965;DHT22;6042;41.326;19.826;2023-06-14T13:25:20;32.70;94.00
11965;DHT22;6042;41.326;19.826;2023-06-14T13:27:49;33.80;92.50
11965;DHT22;6042;41.326;19.826;2023-06-14T13:30:20;32.80;93.10
11965;DHT22;6042;41.326;19.826;2023-06-14T13:32:49;32.10;94.00
11965;DHT22;6042;41.326;19.826;2023-06-14T13:35:19;31.60;94.80
11965;DHT22;6042;41.326;19.826;2023-06-14T13:37:47;30.90;95.70
11965;DHT22;6042;41.326;19.826;2023-06-14T13:40:16;30.30;96.70
11965;DHT22;6042;41.326;19.826;2023-06-14T13:42:46;30.40;96.80
11965;DHT22;6042;41.326;19.826;2023-06-14T13:45:15;30.60;96.30
11965;DHT22;6042;41.326;19.826;2023-06-14T13:47:45;30.80;96.20
11965;DHT22;6042;41.326;19.826;2023-06-14T13:56:30;31.40;95.30
11965;DHT22;6042;41.326;19.826;2023-06-14T13:58:59;31.60;94.80
11965;DHT22;6042;41.326;19.826;2023-06-14T14:01:28;32.40;94.20
11965;DHT22;6042;41.326;19.826;2023-06-14T14:03:57;33.80;92.50
11965;DHT22;6042;41.326;19.826;2023-06-14T14:06:27;33.90;91.80
11965;DHT22;6042;41.326;19.826;2023-06-14T14:08:56;33.60;92.00
11965;DHT22;6042;41.326;19.826;2023-06-14T14:11:25;33.10;92.40
11965;DHT22;6042;41.326;19.826;2023-06-14T14:13:56;32.50;93.10
11965;DHT22;6042;41.326;19.826;2023-06-14T14:16:25;32.10;92.90
11965;DHT22;6042;41.326;19.826;2023-06-14T14:18:54;31.90;93.00
11965;DHT22;6042;41.326;19.826;2023-06-14T14:21:22;32.10;93.20
11965;DHT22;6042;41.326;19.826;2023-06-14T14:23:51;33.10;92.20
11965;DHT22;6042;41.326;19.826;2023-06-14T14:26:20;32.90;92.20
11965;DHT22;6042;41.326;19.826;2023-06-14T14:28:49;32.00;92.70
11965;DHT22;6042;41.326;19.826;2023-06-14T14:31:19;31.10;93.70
11965;DHT22;6042;41.326;19.826;2023-06-14T14:33:48;30.60;94.40
11965;DHT22;6042;41.326;19.826;2023-06-14T14:36:16;30.20;95.10
11965;DHT22;6042;41.326;19.826;2023-06-14T14:38:45;30.50;95.00
11965;DHT22;6042;41.326;19.826;2023-06-14T14:41:14;30.60;95.20
11965;DHT22;6042;41.326;19.826;2023-06-14T14:43:42;30.30;95.60
11965;DHT22;6042;41.326;19.826;2023-06-14T14:46:11;29.90;96.30
11965;DHT22;6042;41.326;19.826;2023-06-14T14:48:41;29.70;96.20
11965;DHT22;6042;41.326;19.826;2023-06-14T14:51:10;29.00;96.70
11965;DHT22;6042;41.326;19.826;2023-06-14T14:53:38;28.80;97.00
11965;DHT22;6042;41.326;19.826;2023-06-14T14:56:08;28.80;96.90
11965;DHT22;6042;41.326;19.826;2023-06-14T14:58:36;29.00;96.80
11965;DHT22;6042;41.326;19.826;2023-06-14T15:01:05;29.10;96.60
11965;DHT22;6042;41.326;19.826;2023-06-14T15:03:34;29.00;96.30
11965;DHT22;6042;41.326;19.826;2023-06-14T15:06:25;28.70;96.50
11965;DHT22;6042;41.326;19.826;2023-06-14T15:08:56;28.70;96.30
11965;DHT22;6042;41.326;19.826;2023-06-14T15:11:25;28.70;96.20
11965;DHT22;6042;41.326;19.826;2023-06-14T15:13:56;28.60;96.50
11965;DHT22;6042;41.326;19.826;2023-06-14T15:16:25;28.40;96.80
11965;DHT22;6042;41.326;19.826;2023-06-14T15:18:53;28.40;97.10
11965;DHT22;6042;41.326;19.826;2023-06-14T15:21:22;28.30;97.20
11965;DHT22;6042;41.326;19.826;2023-06-14T15:23:52;28.30;97.00
11965;DHT22;6042;41.326;19.826;2023-06-14T15:26:21;28.70;96.60
11965;DHT22;6042;41.326;19.826;2023-06-14T15:28:51;29.30;95.90
11965;DHT22;6042;41.326;19.826;2023-06-14T15:31:20;29.40;95.80
11965;DHT22;6042;41.326;19.826;2023-06-14T15:33:50;29.50;95.50
11965;DHT22;6042;41.326;19.826;2023-06-14T15:36:18;29.30;95.60
11965;DHT22;6042;41.326;19.826;2023-06-14T15:38:47;29.10;95.60
11965;DHT22;6042;41.326;19.826;2023-06-14T15:41:17;28.90;96.10
11965;DHT22;6042;41.326;19.826;2023-06-14T15:43:46;28.60;96.30
11965;DHT22;6042;41.326;19.826;2023-06-14T15:46:14;28.40;96.70
11965;DHT22;6042;41.326;19.826;2023-06-14T15:48:43;28.20;97.10
11965;DHT22;6042;41.326;19.826;2023-06-14T15:51:12;28.20;97.20
11965;DHT22;6042;41.326;19.826;2023-06-14T15:53:40;28.10;97.50
11965;DHT22;6042;41.326;19.826;2023-06-14T15:56:09;28.00;98.00
11965;DHT22;6042;41.326;19.826;2023-06-14T15:58:39;27.80;97.90
11965;DHT22;6042;41.326;19.826;2023-06-14T16:01:08;27.70;98.40
11965;DHT22;6042;41.326;19.826;2023-06-14T16:03:36;27.60;98.60
11965;DHT22;6042;41.326;19.826;2023-06-14T16:06:05;27.70;98.70
11965;DHT22;6042;41.326;19.826;2023-06-14T16:08:33;27.60;98.90
11965;DHT22;6042;41.326;19.826;2023-06-14T16:11:07;27.50;99.00